Time;durP1;ratioP1;P1;durP2;ratioP2;P2;SDS_P1;SDS_P2;PMS_P1;PMS_P2;Temp;Humidity;BMP_temperature;BMP_pressure;BME280_temperature;BME280_humidity;BME280_pressure;Samples;Min_cycle;Max_cycle;Signal;HPM_P1;HPM_P2
2021/08/27 00:01:42;;;;;;;20.23;12.75;;;;;;;19.98;94.46;99494.23;1752537;81;21864;-75
2021/08/27 00:04:47;;;;;;;23.55;13.38;;;;;;;19.99;94.45;99497.29;1759049;81;21826;-75
2021/08/27 00:07:52;;;;;;;21.75;13.35;;;;;;;19.96;94.33;99497.83;1758397;81;21890;-75
2021/08/27 00:10:57;;;;;;;20.85;12.43;;;;;;;19.95;94.68;99498.06;1758854;81;21172;-75
2021/08/27 00:14:04;;;;;;;20.68;12.90;;;;;;;19.91;94.73;99501.92;1757181;81;21194;-76
2021/08/27 00:17:12;;;;;;;17.98;11.60;;;;;;;19.86;94.90;99496.30;1753895;81;21282;-75
2021/08/27 00:20:19;;;;;;;19.85;12.10;;;;;;;19.87;95.11;99500.75;1753506;81;21783;-75
2021/08/27 00:23:24;;;;;;;25.43;12.90;;;;;;;19.88;94.94;99496.88;1758928;81;21933;-75
2021/08/27 00:26:30;;;;;;;19.85;12.73;;;;;;;19.89;94.64;99496.61;1739934;81;21294;-75
2021/08/27 00:29:35;;;;;;;23.62;12.55;;;;;;;19.89;94.23;99497.99;1750016;81;21757;-75
2021/08/27 00:32:41;;;;;;;20.08;13.40;;;;;;;19.91;94.15;99493.05;1758831;81;21738;-75
2021/08/27 00:35:48;;;;;;;22.07;13.20;;;;;;;19.90;93.93;99494.15;1758875;81;21309;-75
2021/08/27 00:38:54;;;;;;;26.55;13.43;;;;;;;19.94;94.04;99506.94;1758145;81;21337;-75
2021/08/27 00:41:59;;;;;;;24.02;12.65;;;;;;;19.97;93.68;99510.59;1758907;81;21187;-75
2021/08/27 00:45:04;;;;;;;27.00;12.50;;;;;;;19.96;93.25;99514.47;1753870;81;21320;-75
2021/08/27 00:48:10;;;;;;;19.25;11.33;;;;;;;19.93;93.02;99530.80;1754124;81;21242;-75
2021/08/27 00:51:17;;;;;;;22.20;12.33;;;;;;;19.90;93.33;99529.36;1754079;82;21158;-75
2021/08/27 00:54:23;;;;;;;17.40;11.35;;;;;;;19.89;93.42;99521.58;1755169;82;21202;-75
2021/08/27 00:57:28;;;;;;;22.42;11.83;;;;;;;19.87;93.25;99527.95;1674058;85;21320;-75
2021/08/27 01:00:34;;;;;;;30.72;12.93;;;;;;;19.75;92.90;99531.38;1750215;82;21313;-75
2021/08/27 01:03:40;;;;;;;22.07;12.10;;;;;;;19.61;93.29;99530.05;1677119;85;21170;-75
2021/08/27 01:07:07;;;;;;;22.85;13.25;;;;;;;19.47;94.06;99535.08;1705285;84;21198;-75
2021/08/27 01:10:37;;;;;;;24.87;11.90;;;;;;;19.43;94.90;99531.67;1675300;84;21250;-75
2021/08/27 01:13:51;;;;;;;18.23;13.18;;;;;;;19.43;95.81;99535.28;1755167;82;21944;-75
2021/08/27 01:17:06;;;;;;;24.40;13.60;;;;;;;19.43;96.28;99535.28;1671288;85;21241;-75
2021/08/27 01:21:00;;;;;;;23.30;13.72;;;;;;;19.48;96.89;99533.14;1752398;79;21359;-75
2021/08/27 01:24:15;;;;;;;19.37;12.60;;;;;;;19.52;96.80;99532.92;1808386;79;21220;-75
2021/08/27 01:27:20;;;;;;;22.87;13.53;;;;;;;19.54;96.95;99535.76;1808596;79;21366;-75
2021/08/27 01:30:39;;;;;;;20.95;13.48;;;;;;;19.54;96.86;99528.83;1807177;79;21343;-75
2021/08/27 01:33:44;;;;;;;27.52;14.63;;;;;;;19.52;96.71;99537.92;1808369;79;21843;-75
2021/08/27 01:36:50;;;;;;;26.37;13.72;;;;;;;19.51;96.70;99538.19;1809199;79;21308;-75
2021/08/27 01:40:00;;;;;;;24.12;13.95;;;;;;;19.49;96.79;99541.78;1807335;79;21328;-75
2021/08/27 01:43:05;;;;;;;30.17;13.53;;;;;;;19.48;96.74;99538.69;1808790;79;21296;-76
2021/08/27 01:46:11;;;;;;;29.30;14.07;;;;;;;19.50;96.71;99544.28;1807173;79;21489;-75
2021/08/27 01:49:19;;;;;;;23.75;13.72;;;;;;;19.49;96.37;99538.45;1808048;79;21292;-75
2021/08/27 01:52:24;;;;;;;23.60;13.88;;;;;;;19.46;96.07;99544.49;1803238;79;22609;-75
2021/08/27 01:55:29;;;;;;;30.90;14.18;;;;;;;19.39;95.95;99543.30;1803201;79;21821;-75
2021/08/27 01:58:37;;;;;;;28.90;14.33;;;;;;;19.34;95.88;99542.38;1802899;79;21157;-75
2021/08/27 02:01:42;;;;;;;27.37;15.78;;;;;;;19.28;95.96;99539.20;1778916;79;21864;-75
2021/08/27 02:04:51;;;;;;;29.15;14.63;;;;;;;19.23;95.88;99531.64;1803082;79;21292;-75
2021/08/27 02:07:57;;;;;;;26.80;15.40;;;;;;;19.17;95.81;99535.98;1803027;79;21768;-75
2021/08/27 02:11:02;;;;;;;23.73;14.68;;;;;;;19.10;96.12;99541.66;1801840;79;21758;-75
2021/08/27 02:14:08;;;;;;;24.57;14.98;;;;;;;19.05;96.46;99539.64;1803272;79;21303;-76
2021/08/27 02:17:15;;;;;;;25.57;15.03;;;;;;;19.01;96.81;99546.80;1802284;79;21256;-76
2021/08/27 02:20:21;;;;;;;26.65;15.43;;;;;;;19.00;96.95;99552.58;1801733;79;21225;-76
2021/08/27 02:23:26;;;;;;;27.90;16.27;;;;;;;18.96;96.87;99563.34;1800816;79;21311;-75
2021/08/27 02:26:32;;;;;;;28.83;16.07;;;;;;;18.94;97.21;99557.19;1801366;79;21288;-75
2021/08/27 02:29:37;;;;;;;22.07;15.68;;;;;;;18.93;97.21;99563.83;1802755;79;21898;-76
2021/08/27 02:32:42;;;;;;;33.35;16.15;;;;;;;18.87;97.05;99564.84;1801956;79;21359;-75
2021/08/27 02:35:48;;;;;;;30.88;16.27;;;;;;;18.82;97.57;99564.20;1801806;79;21303;-76
2021/08/27 02:38:56;;;;;;;28.35;16.05;;;;;;;18.83;97.91;99558.94;1801565;79;21284;-76
2021/08/27 02:42:02;;;;;;;28.95;15.90;;;;;;;18.84;97.87;99564.77;1801248;79;22382;-76
2021/08/27 02:45:10;;;;;;;23.90;16.30;;;;;;;18.82;97.46;99567.48;1802377;79;21922;-75
2021/08/27 02:48:16;;;;;;;26.17;16.12;;;;;;;18.77;97.50;99568.77;1803939;79;21283;-76
2021/08/27 02:51:23;;;;;;;23.18;15.85;;;;;;;18.77;97.60;99571.55;1803563;79;21153;-75
2021/08/27 02:54:30;;;;;;;26.33;17.25;;;;;;;18.70;97.12;99568.09;1804197;79;21299;-76
2021/08/27 02:57:46;;;;;;;25.25;16.20;;;;;;;18.64;97.51;99574.06;1803157;79;21303;-76
2021/08/27 03:39:28;;;;;;;24.15;16.67;;;;;;;18.90;97.46;99615.58;1686572;84;21343;-75
2021/08/27 03:42:34;;;;;;;30.43;17.32;;;;;;;18.88;96.89;99617.22;1694536;84;21210;-76
2021/08/27 03:45:40;;;;;;;33.60;17.67;;;;;;;18.89;97.20;99629.14;1695181;84;21843;-76
2021/08/27 03:48:45;;;;;;;26.45;17.42;;;;;;;18.94;97.36;99634.78;1655431;86;21191;-76
2021/08/27 03:51:51;;;;;;;30.40;18.37;;;;;;;18.99;97.46;99632.10;1653285;84;21388;-76
2021/08/27 03:54:56;;;;;;;32.65;18.75;;;;;;;19.09;97.80;99633.68;1654202;86;22594;-77
2021/08/27 03:58:02;;;;;;;28.27;19.48;;;;;;;19.22;97.55;99635.86;1654496;86;21308;-76
2021/08/27 04:01:09;;;;;;;32.50;18.85;;;;;;;19.34;97.46;99640.81;1650257;85;21351;-76
2021/08/27 04:04:15;;;;;;;25.85;17.00;;;;;;;19.50;96.96;99639.13;1639761;87;21212;-76
2021/08/27 04:07:20;;;;;;;39.58;19.20;;;;;;;19.60;95.98;99640.17;1626120;86;21293;-76
2021/08/27 04:10:29;;;;;;;33.60;18.70;;;;;;;19.71;95.69;99641.72;1625274;88;21236;-76
2021/08/27 04:13:28;;;;;;;27.90;18.15;;;;;;;19.84;95.60;99643.61;1641028;86;21201;-76
2021/08/27 04:16:32;;;;;;;33.92;20.15;;;;;;;20.00;95.32;99647.48;1612957;88;21331;-76
2021/08/27 04:19:37;;;;;;;31.90;20.23;;;;;;;20.13;95.10;99647.11;1639281;87;21224;-76
2021/08/27 04:22:44;;;;;;;31.07;21.25;;;;;;;20.27;94.49;99655.08;1627713;86;21336;-76
2021/08/27 04:25:51;;;;;;;31.05;21.02;;;;;;;20.34;93.85;99656.59;1627274;88;21327;-75
2021/08/27 04:28:57;;;;;;;34.85;24.00;;;;;;;20.42;93.41;99656.16;1639649;87;21333;-75
2021/08/27 04:32:02;;;;;;;44.63;25.90;;;;;;;20.47;92.69;99660.97;1638306;87;21365;-76
2021/08/27 04:35:08;;;;;;;48.45;30.65;;;;;;;20.48;92.10;99667.36;1638787;87;21196;-76
2021/08/27 04:38:17;;;;;;;50.70;33.70;;;;;;;20.43;91.86;99668.94;1620181;87;21313;-76
2021/08/27 04:41:22;;;;;;;52.38;31.93;;;;;;;20.39;91.95;99675.27;1654048;84;21601;-75
2021/08/27 04:44:29;;;;;;;45.52;32.20;;;;;;;20.36;92.23;99678.54;1708051;82;21294;-76
2021/08/27 04:47:35;;;;;;;52.35;32.70;;;;;;;20.37;92.93;99685.77;1710229;84;21334;-76
2021/08/27 04:50:40;;;;;;;59.25;29.87;;;;;;;20.40;93.00;99681.10;1710793;83;21704;-76
2021/08/27 04:53:46;;;;;;;47.45;32.05;;;;;;;20.40;92.61;99686.66;1678772;84;21185;-76
2021/08/27 04:56:52;;;;;;;53.28;32.08;;;;;;;20.37;92.92;99685.25;1657963;85;21240;-76
2021/08/27 04:59:58;;;;;;;50.92;31.68;;;;;;;20.39;93.35;99687.20;1704379;83;21968;-75
2021/08/27 05:03:04;;;;;;;53.83;33.13;;;;;;;20.43;93.61;99694.48;1681944;84;21308;-75
2021/08/27 05:06:26;;;;;;;63.85;33.83;;;;;;;20.50;94.09;99695.72;1673949;85;21356;-76
2021/08/27 05:09:31;;;;;;;53.70;33.75;;;;;;;20.60;94.17;99693.91;1672351;84;21311;-76
2021/08/27 05:12:38;;;;;;;52.60;33.92;;;;;;;20.73;93.89;99696.03;1669998;85;21407;-76
2021/08/27 05:15:45;;;;;;;54.60;33.48;;;;;;;20.86;93.75;99695.65;1656954;84;21888;-77
2021/08/27 05:18:52;;;;;;;57.93;34.30;;;;;;;20.99;93.00;99699.44;1692652;84;21323;-77
2021/08/27 05:22:03;;;;;;;56.80;33.10;;;;;;;21.07;91.83;99701.73;1762126;80;21863;-77
2021/08/27 05:25:07;;;;;;;62.58;34.78;;;;;;;21.12;91.71;99706.52;1774939;79;21287;-77
2021/08/27 05:28:14;;;;;;;53.85;34.53;;;;;;;21.24;91.94;99707.78;1767130;80;21283;-78
2021/08/27 05:31:20;;;;;;;50.60;32.15;;;;;;;21.41;91.41;99709.95;1770917;80;21302;-78
2021/08/27 05:34:25;;;;;;;46.10;30.12;;;;;;;21.53;90.83;99717.58;1770498;80;21201;-78
2021/08/27 05:37:30;;;;;;;57.38;35.28;;;;;;;21.62;90.37;99710.44;1770307;80;21300;-78
2021/08/27 05:40:36;;;;;;;57.33;34.53;;;;;;;21.68;89.40;99709.37;1773144;80;21278;-78
2021/08/27 05:43:41;;;;;;;69.10;38.17;;;;;;;21.76;89.24;99714.19;1767297;79;21371;-78
2021/08/27 05:46:47;;;;;;;60.90;38.38;;;;;;;21.75;88.66;99722.25;1770694;79;22173;-78
2021/08/27 05:49:52;;;;;;;69.40;39.30;;;;;;;21.69;88.87;99722.20;1766935;80;21220;-78
2021/08/27 05:52:57;;;;;;;69.95;44.58;;;;;;;21.71;88.90;99729.45;1765779;79;22513;-78
2021/08/27 05:56:04;;;;;;;75.47;46.70;;;;;;;21.77;88.91;99722.81;1770461;80;21193;-76
2021/08/27 05:59:10;;;;;;;70.62;46.13;;;;;;;21.87;87.92;99713.99;1756246;79;21162;-76
2021/08/27 06:02:16;;;;;;;64.03;43.25;;;;;;;21.98;87.34;99712.16;1732305;81;21291;-76
2021/08/27 06:05:22;;;;;;;61.53;39.48;;;;;;;22.09;86.18;99708.89;1728841;81;21320;-76
2021/08/27 06:08:29;;;;;;;68.78;42.73;;;;;;;22.20;85.83;99718.47;1729931;80;21263;-76
2021/08/27 06:11:38;;;;;;;61.90;45.65;;;;;;;22.45;85.33;99713.65;1732185;80;21304;-76
2021/08/27 06:14:41;;;;;;;70.85;48.38;;;;;;;22.71;84.26;99716.58;1734211;80;21326;-77
2021/08/27 06:17:45;;;;;;;58.78;39.35;;;;;;;22.88;82.80;99721.97;1735799;80;21887;-77
2021/08/27 06:20:51;;;;;;;65.45;46.37;;;;;;;23.03;81.91;99719.27;1723522;80;21443;-77
2021/08/27 06:23:57;;;;;;;56.68;42.93;;;;;;;23.25;81.62;99724.66;1687053;83;21222;-76
2021/08/27 06:27:04;;;;;;;61.42;45.30;;;;;;;23.45;79.91;99730.86;1699940;83;21327;-77
2021/08/27 06:30:13;;;;;;;66.12;46.68;;;;;;;23.61;78.57;99731.16;1697324;81;21334;-78
2021/08/27 06:33:19;;;;;;;68.97;47.75;;;;;;;23.74;77.62;99731.78;1710222;81;21370;-77
2021/08/27 06:36:25;;;;;;;70.50;48.65;;;;;;;23.82;77.22;99730.68;1714945;81;21362;-77
2021/08/27 06:39:32;;;;;;;64.00;45.12;;;;;;;23.95;76.58;99737.12;1718146;81;21978;-77
2021/08/27 06:42:44;;;;;;;68.52;46.00;;;;;;;24.11;75.77;99737.95;1715542;81;22724;-77
2021/08/27 06:45:52;;;;;;;61.88;43.42;;;;;;;24.18;75.13;99740.45;1700354;82;21219;-78
2021/08/27 06:48:57;;;;;;;67.80;43.70;;;;;;;24.22;74.87;99735.42;1722741;82;22285;-78
2021/08/27 06:52:03;;;;;;;58.23;39.50;;;;;;;24.26;74.69;99744.09;1718863;81;21195;-78
2021/08/27 06:55:08;;;;;;;52.90;34.13;;;;;;;24.34;73.72;99744.92;1718159;81;21649;-78
2021/08/27 06:58:14;;;;;;;57.08;39.65;;;;;;;24.39;73.16;99750.55;1685515;83;21813;-77
2021/08/27 07:01:19;;;;;;;53.87;37.23;;;;;;;24.40;73.23;99754.17;1711986;81;21769;-77
2021/08/27 07:04:26;;;;;;;54.93;36.65;;;;;;;24.55;73.14;99752.74;1711183;82;21363;-77
2021/08/27 07:07:31;;;;;;;54.85;37.70;;;;;;;24.74;71.94;99743.20;1703184;82;21529;-76
2021/08/27 07:10:37;;;;;;;48.95;31.82;;;;;;;24.85;69.83;99758.85;1714693;82;21362;-77
2021/08/27 07:13:42;;;;;;;51.98;33.05;;;;;;;24.84;68.19;99766.11;1707745;82;21658;-76
2021/08/27 07:16:47;;;;;;;56.53;36.03;;;;;;;24.74;68.57;99763.61;1706381;82;21713;-77
2021/08/27 07:19:54;;;;;;;55.30;35.15;;;;;;;24.73;68.38;99768.93;1682976;82;21681;-77
2021/08/27 07:22:59;;;;;;;54.03;34.40;;;;;;;24.70;69.11;99768.12;1712160;80;21629;-77
2021/08/27 07:26:05;;;;;;;52.35;32.03;;;;;;;24.65;68.79;99767.27;1673343;83;21339;-77
2021/08/27 07:29:09;;;;;;;51.60;30.52;;;;;;;24.66;69.50;99765.61;1709027;82;21303;-76
2021/08/27 07:32:15;;;;;;;48.05;30.92;;;;;;;24.71;69.28;99767.55;1745474;80;21319;-76
2021/08/27 07:35:21;;;;;;;48.10;29.05;;;;;;;24.81;69.07;99774.52;1739969;80;21318;-76
2021/08/27 07:38:27;;;;;;;45.95;29.25;;;;;;;24.94;68.50;99772.53;1682451;83;21916;-77
2021/08/27 07:41:34;;;;;;;51.35;30.25;;;;;;;25.01;67.75;99772.78;1690427;81;21322;-76
2021/08/27 07:44:40;;;;;;;44.67;30.20;;;;;;;24.97;66.80;99776.70;1704194;82;21193;-77
2021/08/27 07:47:45;;;;;;;48.17;30.60;;;;;;;24.97;66.42;99771.11;1694149;83;21333;-76
2021/08/27 07:50:50;;;;;;;48.05;30.57;;;;;;;24.95;66.80;99766.38;1702437;81;21406;-77
2021/08/27 07:53:57;;;;;;;50.33;30.02;;;;;;;24.95;66.37;99776.16;1706574;82;21241;-77
2021/08/27 07:57:02;;;;;;;54.13;29.80;;;;;;;24.91;66.05;99772.25;1692227;82;21689;-77
2021/08/27 08:00:14;;;;;;;50.55;28.65;;;;;;;24.98;66.00;99771.38;1695151;82;21326;-76
2021/08/27 08:03:21;;;;;;;46.50;29.50;;;;;;;25.15;66.35;99780.31;1693083;82;21297;-77
2021/08/27 08:06:25;;;;;;;40.80;28.00;;;;;;;25.22;65.95;99778.63;1741879;80;21275;-77
2021/08/27 08:09:30;;;;;;;43.10;29.52;;;;;;;25.29;65.20;99776.91;1743939;80;22442;-77
2021/08/27 08:12:44;;;;;;;40.92;28.70;;;;;;;25.42;65.91;99771.53;1750206;80;21334;-78
2021/08/27 08:15:53;;;;;;;41.30;28.05;;;;;;;25.62;65.32;99780.37;1735479;80;21213;-77
2021/08/27 08:18:59;;;;;;;44.38;27.85;;;;;;;25.80;64.28;99780.87;1738546;80;21307;-76
2021/08/27 08:22:07;;;;;;;38.42;25.57;;;;;;;25.87;62.47;99782.77;1741202;80;21212;-77
2021/08/27 08:25:17;;;;;;;39.23;25.65;;;;;;;25.93;62.54;99786.67;1719600;81;21299;-77
2021/08/27 08:28:24;;;;;;;42.67;25.90;;;;;;;26.12;62.54;99785.41;1699919;83;21311;-77
2021/08/27 08:31:35;;;;;;;42.85;26.60;;;;;;;26.26;61.40;99792.59;1723022;82;22478;-76
2021/08/27 08:34:46;;;;;;;44.88;29.40;;;;;;;26.25;61.06;99798.77;1716385;82;21460;-75
2021/08/27 08:37:51;;;;;;;37.85;25.88;;;;;;;26.22;60.50;99786.73;1717454;81;21348;-76
2021/08/27 08:40:55;;;;;;;33.73;22.40;;;;;;;26.20;59.45;99793.17;1715319;83;21555;-76
2021/08/27 08:44:03;;;;;;;33.73;22.20;;;;;;;26.16;60.26;99790.72;1720317;83;21187;-77
2021/08/27 08:47:11;;;;;;;36.23;24.35;;;;;;;26.21;60.86;99794.05;1725026;82;21167;-77
2021/08/27 08:50:21;;;;;;;33.15;23.85;;;;;;;26.21;60.78;99793.47;1723250;81;21294;-77
2021/08/27 08:53:29;;;;;;;35.85;24.10;;;;;;;26.24;59.81;99799.88;1722282;81;21850;-77
2021/08/27 08:56:36;;;;;;;31.85;20.48;;;;;;;26.21;59.00;99794.05;1722362;82;21179;-77
2021/08/27 08:59:44;;;;;;;30.52;20.95;;;;;;;26.20;59.75;99799.34;1686076;83;21333;-77
2021/08/27 09:03:20;;;;;;;32.63;22.02;;;;;;;26.19;59.76;99795.71;1696392;82;21469;-78
2021/08/27 09:06:45;;;;;;;27.93;17.98;;;;;;;26.34;60.63;99788.31;1848498;76;22189;-78
2021/08/27 09:10:26;;;;;;;23.05;17.12;;;;;;;26.43;59.61;99789.39;1822812;77;21255;-79
2021/08/27 09:13:43;;;;;;;27.60;19.48;;;;;;;26.52;58.02;99786.78;1816947;77;21164;-77
2021/08/27 09:17:12;;;;;;;29.27;19.07;;;;;;;26.41;57.10;99791.06;1819901;77;21311;-76
2021/08/27 09:20:21;;;;;;;29.23;19.60;;;;;;;26.32;57.46;99787.78;1815880;77;21311;-77
2021/08/27 09:23:30;;;;;;;24.90;18.50;;;;;;;26.31;56.75;99790.31;1760877;80;21308;-76
2021/08/27 09:26:44;;;;;;;28.92;19.52;;;;;;;26.35;56.71;99789.98;1761954;80;21212;-76
2021/08/27 09:29:53;;;;;;;27.55;18.30;;;;;;;26.32;56.53;99795.63;1787929;79;21193;-76
2021/08/27 09:33:03;;;;;;;28.40;20.23;;;;;;;26.34;56.94;99795.31;1780200;79;21298;-76
2021/08/27 09:36:11;;;;;;;29.05;17.52;;;;;;;26.32;56.21;99791.98;1779824;79;21318;-77
2021/08/27 09:39:17;;;;;;;31.95;18.67;;;;;;;26.28;56.08;99790.89;1781617;79;21315;-77
2021/08/27 09:42:23;;;;;;;27.62;17.48;;;;;;;26.26;55.91;99795.40;1781795;79;22003;-77
2021/08/27 09:45:46;;;;;;;27.37;16.57;;;;;;;26.35;55.99;99789.98;1778152;79;21397;-78
2021/08/27 09:48:57;;;;;;;26.42;18.60;;;;;;;26.56;55.57;99782.27;1762555;80;22870;-77
2021/08/27 09:52:06;;;;;;;29.32;18.12;;;;;;;26.80;54.33;99793.53;1780839;79;21310;-77
2021/08/27 09:55:18;;;;;;;30.40;18.48;;;;;;;26.93;54.55;99786.66;1784978;79;21158;-76
2021/08/27 09:58:26;;;;;;;20.68;15.48;;;;;;;26.97;54.09;99791.11;1755106;80;21302;-77
2021/08/27 10:01:45;;;;;;;22.80;15.28;;;;;;;27.09;53.61;99794.92;1727307;80;21240;-76
2021/08/27 10:05:02;;;;;;;24.95;16.20;;;;;;;27.21;52.74;99801.80;1722663;81;21342;-76
2021/08/27 10:08:28;;;;;;;21.60;14.23;;;;;;;27.32;51.72;99795.48;1713171;82;21184;-76
2021/08/27 10:11:37;;;;;;;23.00;16.52;;;;;;;27.30;51.77;99801.16;1724257;82;21193;-76
2021/08/27 10:14:46;;;;;;;24.35;14.87;;;;;;;27.30;51.60;99805.36;1715864;82;21656;-77
2021/08/27 10:17:51;;;;;;;23.85;14.33;;;;;;;27.38;52.12;99802.70;1711772;82;21361;-77
2021/08/27 10:20:58;;;;;;;17.95;11.90;;;;;;;27.46;51.43;99811.04;1713607;82;21216;-77
2021/08/27 10:24:03;;;;;;;22.27;13.20;;;;;;;27.41;50.95;99809.70;1724913;82;21300;-77
2021/08/27 10:27:15;;;;;;;20.23;13.38;;;;;;;27.30;50.79;99820.80;1742206;81;21350;-77
2021/08/27 10:30:21;;;;;;;19.20;12.82;;;;;;;27.18;50.35;99817.83;1728578;82;21355;-77
2021/08/27 10:33:50;;;;;;;17.62;13.22;;;;;;;27.16;51.02;99819.28;1715430;82;21759;-77
2021/08/27 10:36:58;;;;;;;;;;;;;;;27.25;50.81;99816.08;1733624;81;21303;-77
2021/08/27 10:40:04;;;;;;;17.77;13.20;;;;;;;27.31;50.62;99821.90;1728895;82;20266;-77
2021/08/27 10:43:18;;;;;;;19.98;14.53;;;;;;;27.39;50.60;99819.84;1726433;81;21600;-77
2021/08/27 10:46:29;;;;;;;24.90;15.83;;;;;;;27.56;50.10;99816.52;1726370;81;21275;-77
2021/08/27 10:49:56;;;;;;;22.50;15.72;;;;;;;27.68;48.77;99811.31;1725236;81;21857;-76
2021/08/27 10:53:04;;;;;;;23.35;15.75;;;;;;;27.83;49.08;99824.91;1727890;81;21330;-77
2021/08/27 10:56:14;;;;;;;29.32;15.25;;;;;;;27.83;49.08;99824.91;1715991;81;21172;-77
2021/08/27 10:59:21;;;;;;;22.32;15.35;;;;;;;27.84;48.33;99825.17;1728707;81;22352;-77
2021/08/27 11:02:30;;;;;;;22.98;16.87;;;;;;;27.80;47.44;99818.48;1726153;81;21291;-77
2021/08/27 11:05:47;;;;;;;22.75;15.75;;;;;;;27.72;48.75;99816.63;1724579;81;21209;-77
2021/08/27 11:08:53;;;;;;;28.80;17.70;;;;;;;27.60;47.23;99816.19;1699015;83;21326;-77
2021/08/27 11:12:24;;;;;;;31.97;18.70;;;;;;;27.49;48.26;99818.30;1713466;83;21924;-77
2021/08/27 11:15:36;;;;;;;27.13;19.20;;;;;;;27.41;49.14;99812.52;1711505;83;21188;-77
2021/08/27 11:18:45;;;;;;;26.95;18.23;;;;;;;27.48;48.46;99820.85;1723714;83;21321;-77
2021/08/27 11:21:57;;;;;;;24.27;17.50;;;;;;;27.48;48.46;99820.85;1705853;82;21182;-77
2021/08/27 11:25:17;;;;;;;26.05;17.20;;;;;;;27.46;48.28;99819.47;1709604;83;21784;-78
2021/08/27 11:28:25;;;;;;;22.50;16.32;;;;;;;27.41;48.21;99813.34;1718120;83;21847;-77
2021/08/27 11:31:34;;;;;;;24.12;16.60;;;;;;;27.40;47.81;99815.89;1701169;84;21359;-77
2021/08/27 11:35:05;;;;;;;22.17;15.30;;;;;;;27.39;48.00;99812.82;1693437;83;21315;-77
2021/08/27 11:38:11;;;;;;;23.90;15.20;;;;;;;27.41;46.96;99809.70;1705288;83;21867;-77
2021/08/27 11:41:17;;;;;;;24.32;14.43;;;;;;;27.30;47.37;99816.02;1701351;83;21259;-77
2021/08/27 11:44:42;;;;;;;18.55;13.53;;;;;;;27.30;47.37;99816.02;1682381;83;21327;-77
2021/08/27 11:47:52;;;;;;;21.23;13.93;;;;;;;27.43;47.47;99821.45;1697948;83;21877;-77
2021/08/27 11:51:00;;;;;;;16.17;13.35;;;;;;;27.54;47.11;99827.81;1712223;83;21326;-77
2021/08/27 11:54:26;;;;;;;19.85;13.83;;;;;;;27.68;46.96;99823.13;1703323;82;21350;-77
2021/08/27 11:57:37;;;;;;;18.32;13.30;;;;;;;27.70;45.83;99821.67;1707466;83;21165;-78
2021/08/27 12:00:48;;;;;;;26.50;14.38;;;;;;;27.66;46.45;99822.00;1703463;83;21301;-77
2021/08/27 12:04:13;;;;;;;16.52;13.18;;;;;;;27.55;46.18;99826.09;1708387;83;21248;-78
2021/08/27 12:07:27;;;;;;;22.30;12.88;;;;;;;27.55;46.18;99826.09;1688772;83;22141;-76
2021/08/27 12:10:56;;;;;;;16.10;11.50;;;;;;;27.54;46.76;99825.83;1733716;82;21216;-77
2021/08/27 12:14:25;;;;;;;14.47;11.50;;;;;;;27.49;46.84;99825.33;1698594;83;21326;-77
2021/08/27 12:17:35;;;;;;;13.33;10.93;;;;;;;27.50;45.37;99831.20;1757593;80;21267;-77
2021/08/27 12:20:50;;;;;;;14.30;11.73;;;;;;;27.48;45.08;99832.09;1729873;82;22179;-77
2021/08/27 12:24:10;;;;;;;11.88;9.45;;;;;;;27.48;46.41;99824.23;1695724;83;21219;-77
2021/08/27 12:27:25;;;;;;;13.08;9.93;;;;;;;27.49;45.96;99821.69;1759747;80;21902;-76
2021/08/27 12:30:34;;;;;;;12.25;9.53;;;;;;;27.42;45.40;99819.22;1734316;82;21209;-76
2021/08/27 12:33:51;;;;;;;13.62;9.48;;;;;;;27.41;45.72;99816.72;1765880;80;21268;-76
2021/08/27 12:37:01;;;;;;;11.80;8.70;;;;;;;27.36;44.23;99819.59;1731121;82;21724;-76
2021/08/27 12:40:22;;;;;;;11.20;8.20;;;;;;;27.39;43.49;99823.22;1747970;80;21292;-77
2021/08/27 12:44:00;;;;;;;12.28;9.35;;;;;;;27.45;43.20;99820.04;1758749;80;21268;-76
2021/08/27 12:47:11;;;;;;;10.70;8.48;;;;;;;27.50;43.68;99820.55;1763477;80;21157;-76
2021/08/27 12:50:21;;;;;;;11.85;9.55;;;;;;;27.50;43.44;99815.76;1759706;80;21289;-77
2021/08/27 12:53:46;;;;;;;12.68;9.35;;;;;;;27.38;43.28;99825.16;1762478;80;21360;-77
2021/08/27 12:57:08;;;;;;;11.65;9.05;;;;;;;27.20;43.53;99811.37;1766050;80;21297;-76
2021/08/27 13:00:16;;;;;;;12.63;8.70;;;;;;;27.19;43.89;99813.88;1770100;80;21343;-76
2021/08/27 13:03:24;;;;;;;9.85;7.92;;;;;;;27.17;43.33;99816.16;1740021;80;21200;-78
2021/08/27 13:06:57;;;;;;;10.28;8.10;;;;;;;27.13;43.49;99814.25;1731231;82;21868;-79
2021/08/27 13:10:25;;;;;;;9.65;7.20;;;;;;;27.12;42.44;99804.99;1719236;82;21733;-77
2021/08/27 13:13:45;;;;;;;12.05;7.53;;;;;;;27.05;42.11;99814.86;1757546;80;21323;-76
2021/08/27 13:17:11;;;;;;;10.55;8.30;;;;;;;26.99;42.03;99814.08;1711335;83;21305;-77
2021/08/27 13:20:18;;;;;;;13.53;10.25;;;;;;;26.97;42.19;99814.96;1711659;82;21261;-77
2021/08/27 13:23:31;;;;;;;12.07;8.68;;;;;;;26.91;42.55;99807.17;1771014;81;21248;-77
2021/08/27 13:26:39;;;;;;;12.98;9.15;;;;;;;26.90;43.81;99801.84;1768919;81;21863;-77
2021/08/27 13:29:55;;;;;;;13.30;9.50;;;;;;;26.85;43.38;99806.09;1767816;81;21359;-77
2021/08/27 13:33:05;;;;;;;10.93;8.30;;;;;;;26.79;44.17;99810.09;1773125;79;21784;-77
2021/08/27 13:36:25;;;;;;;15.88;8.78;;;;;;;26.74;44.36;99803.40;1780617;79;21292;-77
2021/08/27 13:39:35;;;;;;;15.30;8.35;;;;;;;26.66;44.20;99802.63;1767505;79;21953;-77
2021/08/27 13:42:44;;;;;;;15.05;9.23;;;;;;;26.60;43.94;99802.42;1771582;79;21300;-77
2021/08/27 13:45:51;;;;;;;13.38;9.88;;;;;;;26.56;44.33;99803.30;1795648;79;21284;-77
2021/08/27 13:49:00;;;;;;;;;;;;;;;26.50;43.90;99797.73;1779311;79;21954;-77
2021/08/27 13:52:13;;;;;;;15.00;10.95;;;;;;;26.46;43.94;99805.06;1799838;79;20212;-78
2021/08/27 13:55:23;;;;;;;13.30;10.00;;;;;;;26.42;44.49;99811.52;1800713;79;21336;-78
2021/08/27 13:58:31;;;;;;;12.63;9.83;;;;;;;26.43;44.33;99809.02;1800855;79;21311;-78
2021/08/27 14:01:37;;;;;;;11.25;8.85;;;;;;;26.44;43.90;99810.67;1800429;79;21521;-78
2021/08/27 14:04:50;;;;;;;13.80;9.38;;;;;;;26.42;43.88;99810.95;1729098;83;21678;-78
2021/08/27 14:07:57;;;;;;;16.90;10.08;;;;;;;26.43;44.13;99812.65;1796528;80;21280;-78
2021/08/27 14:11:04;;;;;;;12.75;9.35;;;;;;;26.43;44.58;99814.62;1730056;83;21666;-78
2021/08/27 14:14:23;;;;;;;15.55;11.30;;;;;;;26.40;44.87;99819.41;1757343;81;21327;-78
2021/08/27 14:17:32;;;;;;;17.70;12.15;;;;;;;26.29;44.97;99824.80;1757109;81;21298;-78
2021/08/27 14:20:38;;;;;;;19.85;11.90;;;;;;;26.20;45.22;99824.01;1755248;81;21304;-78
2021/08/27 14:23:50;;;;;;;16.65;12.88;;;;;;;26.14;45.26;99823.78;1757697;81;21879;-78
2021/08/27 14:26:56;;;;;;;21.97;12.75;;;;;;;26.13;45.91;99827.72;1757023;81;21322;-78
2021/08/27 14:30:08;;;;;;;16.48;12.13;;;;;;;26.14;46.16;99825.19;1756943;81;21878;-78
2021/08/27 14:33:16;;;;;;;19.90;11.20;;;;;;;26.18;46.40;99829.08;1756979;81;21193;-78
2021/08/27 14:36:22;;;;;;;17.17;12.55;;;;;;;26.28;46.19;99832.94;1734200;82;21581;-78
2021/08/27 14:39:29;;;;;;;16.27;12.15;;;;;;;26.35;45.85;99833.43;1756440;81;21306;-78
2021/08/27 14:42:35;;;;;;;17.42;13.20;;;;;;;26.38;46.01;99828.08;1755358;81;21796;-78
2021/08/27 14:45:42;;;;;;;19.20;12.50;;;;;;;26.39;45.96;99831.72;1756781;81;21236;-78
2021/08/27 14:48:54;;;;;;;16.23;12.28;;;;;;;26.35;45.58;99827.83;1757581;81;21252;-78
2021/08/27 14:52:06;;;;;;;18.82;11.88;;;;;;;26.20;45.30;99826.81;1755047;81;21212;-78
2021/08/27 14:55:15;;;;;;;22.00;13.22;;;;;;;26.07;45.45;99830.86;1756833;81;21906;-78
2021/08/27 14:58:21;;;;;;;17.73;12.70;;;;;;;25.99;45.50;99828.09;1757041;81;21855;-78
2021/08/27 15:01:27;;;;;;;17.27;12.15;;;;;;;25.90;45.78;99825.63;1755547;81;21224;-78
2021/08/27 15:04:35;;;;;;;17.98;12.05;;;;;;;25.84;46.08;99826.80;1756769;81;21307;-78
2021/08/27 15:07:42;;;;;;;18.77;13.72;;;;;;;25.78;46.18;99827.36;1756785;81;21362;-78
2021/08/27 15:10:51;;;;;;;17.60;13.20;;;;;;;25.72;46.56;99837.73;1755304;81;21207;-78
2021/08/27 15:14:00;;;;;;;18.12;13.13;;;;;;;25.65;46.87;99830.22;1732655;83;21204;-78